Startpagina
METAR-TAF:

METAR-TAF

Vliegvelden :

Vliegbasis Florennes

Florennes, België

breedte: 50-14N, lengte: 004-39E, hoogte: 279 m

Actueel weer

Dit bericht is 40 minuten geleden gemaakt, om 13:55 UTC
Wind 5 kt uit het oosten
Temperatuur 8°C
Vochtigheid 87%
Druk 1026 hPa
Zicht 10 km of meer
Weinig wolken op 400 ft

METAR: EBFS 161355Z 10005KT 9999 FEW004 08/06 Q1026 BLU BLU

Tijdstip: 15:35 (14:35 UTC)

Verwachting

Dit bericht is 2 uur en het 54 minuten geleden gemaakt, om 11:41 UTC
Verwachting geldig van 16 om 13 UTC tot 16 om 22 UTC
Wind 5 kt uit het oostzuidoosten
Zicht: 4500 m
Verspreide wolken op 800 ft
nevel
Wijzigt naar
van 16 om 13 UTC tot 16 om 14 UTC
Wind 5 kt uit het oosten
Zicht 10 km of meer
Weinig wolken op 24000 ft

TAF: EBFS 161141Z 1613/1622 12005KT 4500 BR SCT008 BECMG 1613/1614 10005KT 9999 FEW240

Waarnemingen en weersverwachtingen van meer dan 4000 vliegvelden (METAR en TAF).

De beschikbare stations zijn de gele en rode punten op de kaart.

Ga met uw muis naar het station om de naam te zien.

Klik dan om waarnemingen en weersverwachtingen te zien.

kaart wijzigen: klik op de groene knoppen met een zwart kruis om in te zoomen, op de groene knop met een streepje om uit te zoomen of op de groene pijlen voor aangrenzende kaarten.


METAR-TAF: